sensor_id;sensor_type;location;lat;lon;timestamp;P1;durP1;ratioP1;P2;durP2;ratioP2
3769;SDS011;1900;48.890;9.190;2023-04-25T00:01:16;4.43;;;1.80;;
3769;SDS011;1900;48.890;9.190;2023-04-25T00:03:42;2.57;;;2.37;;
3769;SDS011;1900;48.890;9.190;2023-04-25T00:06:08;3.43;;;2.23;;
3769;SDS011;1900;48.890;9.190;2023-04-25T00:08:34;3.63;;;2.20;;
3769;SDS011;1900;48.890;9.190;2023-04-25T00:11:00;2.87;;;2.40;;
3769;SDS011;1900;48.890;9.190;2023-04-25T00:13:26;4.13;;;3.13;;
3769;SDS011;1900;48.890;9.190;2023-04-25T00:15:52;7.30;;;2.60;;
3769;SDS011;1900;48.890;9.190;2023-04-25T00:18:25;3.17;;;2.33;;
3769;SDS011;1900;48.890;9.190;2023-04-25T00:20:53;3.27;;;2.57;;
3769;SDS011;1900;48.890;9.190;2023-04-25T00:23:19;2.20;;;2.00;;
3769;SDS011;1900;48.890;9.190;2023-04-25T00:25:45;4.90;;;2.67;;
3769;SDS011;1900;48.890;9.190;2023-04-25T00:28:15;3.53;;;2.77;;
3769;SDS011;1900;48.890;9.190;2023-04-25T00:30:41;5.23;;;2.90;;
3769;SDS011;1900;48.890;9.190;2023-04-25T00:33:07;6.03;;;3.80;;
3769;SDS011;1900;48.890;9.190;2023-04-25T00:35:33;6.90;;;3.37;;
3769;SDS011;1900;48.890;9.190;2023-04-25T00:37:59;5.53;;;3.47;;
3769;SDS011;1900;48.890;9.190;2023-04-25T00:40:25;3.73;;;3.00;;
3769;SDS011;1900;48.890;9.190;2023-04-25T00:42:52;3.73;;;2.77;;
3769;SDS011;1900;48.890;9.190;2023-04-25T00:45:18;4.17;;;2.93;;
3769;SDS011;1900;48.890;9.190;2023-04-25T00:47:44;4.30;;;3.60;;
3769;SDS011;1900;48.890;9.190;2023-04-25T00:50:11;7.53;;;5.03;;
3769;SDS011;1900;48.890;9.190;2023-04-25T00:52:39;4.57;;;4.13;;
3769;SDS011;1900;48.890;9.190;2023-04-25T00:55:08;4.17;;;3.73;;
3769;SDS011;1900;48.890;9.190;2023-04-25T00:57:35;5.50;;;3.87;;
3769;SDS011;1900;48.890;9.190;2023-04-25T01:00:01;4.37;;;3.47;;
3769;SDS011;1900;48.890;9.190;2023-04-25T01:02:28;4.10;;;3.13;;
3769;SDS011;1900;48.890;9.190;2023-04-25T01:04:55;4.10;;;3.07;;
3769;SDS011;1900;48.890;9.190;2023-04-25T01:07:21;5.10;;;2.80;;
3769;SDS011;1900;48.890;9.190;2023-04-25T01:09:46;4.23;;;2.57;;
3769;SDS011;1900;48.890;9.190;2023-04-25T01:12:12;3.20;;;2.80;;
3769;SDS011;1900;48.890;9.190;2023-04-25T01:14:39;3.60;;;2.57;;
3769;SDS011;1900;48.890;9.190;2023-04-25T01:17:05;2.47;;;2.27;;
3769;SDS011;1900;48.890;9.190;2023-04-25T01:19:33;4.47;;;3.43;;
3769;SDS011;1900;48.890;9.190;2023-04-25T01:21:59;7.07;;;3.17;;
3769;SDS011;1900;48.890;9.190;2023-04-25T01:24:25;4.00;;;2.63;;
3769;SDS011;1900;48.890;9.190;2023-04-25T01:26:51;3.67;;;3.07;;
3769;SDS011;1900;48.890;9.190;2023-04-25T01:29:22;4.77;;;3.17;;
3769;SDS011;1900;48.890;9.190;2023-04-25T01:31:49;2.80;;;2.40;;
3769;SDS011;1900;48.890;9.190;2023-04-25T01:34:16;3.60;;;3.00;;
3769;SDS011;1900;48.890;9.190;2023-04-25T01:36:42;2.80;;;2.53;;
3769;SDS011;1900;48.890;9.190;2023-04-25T01:39:08;6.97;;;3.40;;
3769;SDS011;1900;48.890;9.190;2023-04-25T01:41:34;3.77;;;3.30;;
3769;SDS011;1900;48.890;9.190;2023-04-25T01:44:00;4.60;;;3.30;;
3769;SDS011;1900;48.890;9.190;2023-04-25T01:46:26;6.20;;;3.47;;
3769;SDS011;1900;48.890;9.190;2023-04-25T01:48:52;7.23;;;3.80;;
3769;SDS011;1900;48.890;9.190;2023-04-25T01:51:18;4.30;;;3.33;;
3769;SDS011;1900;48.890;9.190;2023-04-25T01:53:45;7.17;;;3.20;;
3769;SDS011;1900;48.890;9.190;2023-04-25T01:56:11;5.60;;;3.17;;
3769;SDS011;1900;48.890;9.190;2023-04-25T01:58:38;3.50;;;2.90;;
3769;SDS011;1900;48.890;9.190;2023-04-25T02:01:18;4.23;;;3.70;;
3769;SDS011;1900;48.890;9.190;2023-04-25T02:03:55;4.73;;;4.10;;
3769;SDS011;1900;48.890;9.190;2023-04-25T02:06:30;5.63;;;3.50;;
3769;SDS011;1900;48.890;9.190;2023-04-25T02:08:56;4.90;;;3.37;;
3769;SDS011;1900;48.890;9.190;2023-04-25T02:11:22;6.03;;;4.00;;
3769;SDS011;1900;48.890;9.190;2023-04-25T02:13:59;3.70;;;2.90;;
3769;SDS011;1900;48.890;9.190;2023-04-25T02:16:37;3.40;;;2.90;;
3769;SDS011;1900;48.890;9.190;2023-04-25T02:19:06;4.30;;;2.90;;
3769;SDS011;1900;48.890;9.190;2023-04-25T02:21:32;2.57;;;2.37;;
3769;SDS011;1900;48.890;9.190;2023-04-25T02:24:00;3.70;;;2.73;;
3769;SDS011;1900;48.890;9.190;2023-04-25T02:26:27;6.83;;;2.90;;
3769;SDS011;1900;48.890;9.190;2023-04-25T02:28:53;3.10;;;2.87;;
3769;SDS011;1900;48.890;9.190;2023-04-25T02:31:18;3.57;;;3.00;;
3769;SDS011;1900;48.890;9.190;2023-04-25T02:33:44;5.37;;;3.53;;
3769;SDS011;1900;48.890;9.190;2023-04-25T02:36:11;5.03;;;3.53;;
3769;SDS011;1900;48.890;9.190;2023-04-25T02:38:36;3.70;;;3.17;;
3769;SDS011;1900;48.890;9.190;2023-04-25T02:41:03;4.20;;;3.40;;
3769;SDS011;1900;48.890;9.190;2023-04-25T02:43:29;4.63;;;3.23;;
3769;SDS011;1900;48.890;9.190;2023-04-25T02:45:55;5.20;;;3.60;;
3769;SDS011;1900;48.890;9.190;2023-04-25T02:48:21;4.47;;;3.00;;
3769;SDS011;1900;48.890;9.190;2023-04-25T02:50:47;5.00;;;3.57;;
3769;SDS011;1900;48.890;9.190;2023-04-25T02:53:13;5.30;;;3.53;;
3769;SDS011;1900;48.890;9.190;2023-04-25T02:55:44;4.40;;;3.03;;
3769;SDS011;1900;48.890;9.190;2023-04-25T02:58:10;4.10;;;3.10;;
3769;SDS011;1900;48.890;9.190;2023-04-25T03:00:43;3.23;;;2.93;;
3769;SDS011;1900;48.890;9.190;2023-04-25T03:03:09;3.17;;;2.90;;
3769;SDS011;1900;48.890;9.190;2023-04-25T03:05:35;4.67;;;3.33;;
3769;SDS011;1900;48.890;9.190;2023-04-25T03:08:01;4.33;;;3.10;;
3769;SDS011;1900;48.890;9.190;2023-04-25T03:10:28;4.97;;;3.90;;
3769;SDS011;1900;48.890;9.190;2023-04-25T03:12:57;5.83;;;3.10;;
3769;SDS011;1900;48.890;9.190;2023-04-25T03:15:24;6.77;;;4.80;;
3769;SDS011;1900;48.890;9.190;2023-04-25T03:17:51;5.23;;;4.10;;
3769;SDS011;1900;48.890;9.190;2023-04-25T03:20:17;5.83;;;4.50;;
3769;SDS011;1900;48.890;9.190;2023-04-25T03:22:42;5.77;;;4.17;;
3769;SDS011;1900;48.890;9.190;2023-04-25T03:25:09;7.27;;;4.70;;
3769;SDS011;1900;48.890;9.190;2023-04-25T03:27:35;5.40;;;3.67;;
3769;SDS011;1900;48.890;9.190;2023-04-25T03:30:01;6.13;;;3.73;;
3769;SDS011;1900;48.890;9.190;2023-04-25T03:32:28;5.53;;;3.07;;
3769;SDS011;1900;48.890;9.190;2023-04-25T03:34:53;5.80;;;3.10;;
3769;SDS011;1900;48.890;9.190;2023-04-25T03:37:19;7.20;;;3.43;;
3769;SDS011;1900;48.890;9.190;2023-04-25T03:39:45;3.13;;;2.83;;
3769;SDS011;1900;48.890;9.190;2023-04-25T03:42:11;5.37;;;2.93;;
3769;SDS011;1900;48.890;9.190;2023-04-25T03:44:37;5.57;;;3.57;;
3769;SDS011;1900;48.890;9.190;2023-04-25T03:47:02;4.70;;;3.40;;
3769;SDS011;1900;48.890;9.190;2023-04-25T03:49:28;4.60;;;3.67;;
3769;SDS011;1900;48.890;9.190;2023-04-25T03:52:00;5.17;;;3.40;;
3769;SDS011;1900;48.890;9.190;2023-04-25T03:54:29;4.97;;;3.60;;
3769;SDS011;1900;48.890;9.190;2023-04-25T03:57:07;4.20;;;3.63;;
3769;SDS011;1900;48.890;9.190;2023-04-25T03:59:36;5.70;;;3.70;;
3769;SDS011;1900;48.890;9.190;2023-04-25T04:02:02;5.30;;;3.20;;
3769;SDS011;1900;48.890;9.190;2023-04-25T04:04:28;5.40;;;3.47;;
3769;SDS011;1900;48.890;9.190;2023-04-25T04:06:54;7.93;;;3.70;;
3769;SDS011;1900;48.890;9.190;2023-04-25T04:09:24;4.00;;;3.60;;
3769;SDS011;1900;48.890;9.190;2023-04-25T04:11:50;5.37;;;3.93;;
3769;SDS011;1900;48.890;9.190;2023-04-25T04:14:16;4.10;;;3.33;;
3769;SDS011;1900;48.890;9.190;2023-04-25T04:16:44;4.47;;;3.40;;
3769;SDS011;1900;48.890;9.190;2023-04-25T04:19:10;4.90;;;3.20;;
3769;SDS011;1900;48.890;9.190;2023-04-25T04:21:37;7.03;;;3.73;;
3769;SDS011;1900;48.890;9.190;2023-04-25T04:24:03;9.13;;;3.97;;
3769;SDS011;1900;48.890;9.190;2023-04-25T04:26:39;5.73;;;3.80;;
3769;SDS011;1900;48.890;9.190;2023-04-25T04:29:11;4.03;;;3.50;;
3769;SDS011;1900;48.890;9.190;2023-04-25T04:31:54;3.60;;;3.30;;
3769;SDS011;1900;48.890;9.190;2023-04-25T04:34:20;7.00;;;4.00;;
3769;SDS011;1900;48.890;9.190;2023-04-25T04:36:46;8.27;;;3.77;;
3769;SDS011;1900;48.890;9.190;2023-04-25T04:39:12;5.93;;;3.67;;
3769;SDS011;1900;48.890;9.190;2023-04-25T04:41:48;6.27;;;3.83;;
3769;SDS011;1900;48.890;9.190;2023-04-25T04:44:36;5.40;;;4.40;;
3769;SDS011;1900;48.890;9.190;2023-04-25T04:47:11;5.00;;;3.93;;
3769;SDS011;1900;48.890;9.190;2023-04-25T04:49:57;4.20;;;3.57;;
3769;SDS011;1900;48.890;9.190;2023-04-25T04:52:39;4.93;;;3.67;;
3769;SDS011;1900;48.890;9.190;2023-04-25T04:55:43;4.20;;;3.80;;
3769;SDS011;1900;48.890;9.190;2023-04-25T04:58:24;5.23;;;3.80;;
3769;SDS011;1900;48.890;9.190;2023-04-25T05:01:04;7.43;;;4.20;;
3769;SDS011;1900;48.890;9.190;2023-04-25T05:03:53;8.33;;;4.67;;
3769;SDS011;1900;48.890;9.190;2023-04-25T05:06:45;5.00;;;3.97;;
3769;SDS011;1900;48.890;9.190;2023-04-25T05:09:26;7.00;;;4.30;;
3769;SDS011;1900;48.890;9.190;2023-04-25T05:12:03;6.70;;;4.37;;
3769;SDS011;1900;48.890;9.190;2023-04-25T05:14:55;5.30;;;4.73;;
3769;SDS011;1900;48.890;9.190;2023-04-25T05:17:51;8.10;;;4.27;;
3769;SDS011;1900;48.890;9.190;2023-04-25T05:20:30;5.50;;;4.30;;
3769;SDS011;1900;48.890;9.190;2023-04-25T05:22:59;6.47;;;4.00;;
3769;SDS011;1900;48.890;9.190;2023-04-25T05:25:54;7.10;;;4.40;;
3769;SDS011;1900;48.890;9.190;2023-04-25T05:28:38;7.23;;;4.00;;
3769;SDS011;1900;48.890;9.190;2023-04-25T05:31:42;5.20;;;4.10;;
3769;SDS011;1900;48.890;9.190;2023-04-25T05:34:12;4.70;;;3.73;;
3769;SDS011;1900;48.890;9.190;2023-04-25T05:36:45;7.60;;;4.00;;
3769;SDS011;1900;48.890;9.190;2023-04-25T05:39:17;4.40;;;4.00;;
3769;SDS011;1900;48.890;9.190;2023-04-25T05:42:08;4.77;;;4.27;;
3769;SDS011;1900;48.890;9.190;2023-04-25T05:45:07;5.10;;;3.77;;
3769;SDS011;1900;48.890;9.190;2023-04-25T05:47:41;5.20;;;4.13;;
3769;SDS011;1900;48.890;9.190;2023-04-25T05:50:13;6.60;;;4.40;;
3769;SDS011;1900;48.890;9.190;2023-04-25T05:52:51;5.80;;;4.33;;
3769;SDS011;1900;48.890;9.190;2023-04-25T05:55:27;5.20;;;3.93;;
3769;SDS011;1900;48.890;9.190;2023-04-25T05:57:54;5.87;;;4.30;;
3769;SDS011;1900;48.890;9.190;2023-04-25T06:00:20;4.27;;;3.83;;
3769;SDS011;1900;48.890;9.190;2023-04-25T06:02:48;4.60;;;4.07;;
3769;SDS011;1900;48.890;9.190;2023-04-25T06:05:14;8.60;;;3.93;;
3769;SDS011;1900;48.890;9.190;2023-04-25T06:07:40;6.13;;;4.03;;
3769;SDS011;1900;48.890;9.190;2023-04-25T06:10:05;4.97;;;4.03;;
3769;SDS011;1900;48.890;9.190;2023-04-25T06:12:32;7.40;;;4.60;;
3769;SDS011;1900;48.890;9.190;2023-04-25T06:14:59;5.67;;;4.03;;
3769;SDS011;1900;48.890;9.190;2023-04-25T06:17:25;5.60;;;4.70;;
3769;SDS011;1900;48.890;9.190;2023-04-25T06:19:51;8.40;;;5.33;;
3769;SDS011;1900;48.890;9.190;2023-04-25T06:22:17;4.80;;;4.40;;
3769;SDS011;1900;48.890;9.190;2023-04-25T06:24:43;4.73;;;4.03;;
3769;SDS011;1900;48.890;9.190;2023-04-25T06:27:10;6.70;;;4.80;;
3769;SDS011;1900;48.890;9.190;2023-04-25T06:29:36;8.40;;;4.63;;
3769;SDS011;1900;48.890;9.190;2023-04-25T06:32:02;6.50;;;4.17;;
3769;SDS011;1900;48.890;9.190;2023-04-25T06:34:28;5.03;;;3.80;;
3769;SDS011;1900;48.890;9.190;2023-04-25T06:36:54;4.30;;;3.90;;
3769;SDS011;1900;48.890;9.190;2023-04-25T06:39:20;6.30;;;4.47;;
3769;SDS011;1900;48.890;9.190;2023-04-25T06:41:48;5.03;;;4.53;;
3769;SDS011;1900;48.890;9.190;2023-04-25T06:44:34;6.03;;;3.77;;
3769;SDS011;1900;48.890;9.190;2023-04-25T06:47:05;5.80;;;4.50;;
3769;SDS011;1900;48.890;9.190;2023-04-25T06:49:31;4.53;;;3.73;;
3769;SDS011;1900;48.890;9.190;2023-04-25T06:51:57;3.90;;;3.40;;
3769;SDS011;1900;48.890;9.190;2023-04-25T06:54:22;4.90;;;4.00;;
3769;SDS011;1900;48.890;9.190;2023-04-25T06:56:58;4.70;;;3.53;;
3769;SDS011;1900;48.890;9.190;2023-04-25T06:59:26;6.57;;;3.97;;
3769;SDS011;1900;48.890;9.190;2023-04-25T07:01:52;5.73;;;4.13;;
3769;SDS011;1900;48.890;9.190;2023-04-25T07:04:20;5.30;;;3.90;;
3769;SDS011;1900;48.890;9.190;2023-04-25T07:06:53;6.07;;;4.27;;
3769;SDS011;1900;48.890;9.190;2023-04-25T07:09:26;4.47;;;3.87;;
3769;SDS011;1900;48.890;9.190;2023-04-25T07:11:53;4.03;;;3.63;;
3769;SDS011;1900;48.890;9.190;2023-04-25T07:14:18;4.87;;;3.93;;
3769;SDS011;1900;48.890;9.190;2023-04-25T07:16:45;3.83;;;3.50;;
3769;SDS011;1900;48.890;9.190;2023-04-25T07:19:14;5.63;;;4.33;;
3769;SDS011;1900;48.890;9.190;2023-04-25T07:21:40;4.60;;;4.20;;
3769;SDS011;1900;48.890;9.190;2023-04-25T07:24:06;4.40;;;3.90;;
3769;SDS011;1900;48.890;9.190;2023-04-25T07:26:35;4.47;;;4.07;;
3769;SDS011;1900;48.890;9.190;2023-04-25T07:29:18;10.93;;;5.00;;
3769;SDS011;1900;48.890;9.190;2023-04-25T07:31:43;5.70;;;4.27;;
3769;SDS011;1900;48.890;9.190;2023-04-25T07:34:09;8.53;;;6.03;;
3769;SDS011;1900;48.890;9.190;2023-04-25T07:36:37;5.80;;;4.83;;
3769;SDS011;1900;48.890;9.190;2023-04-25T07:39:02;9.10;;;4.60;;
3769;SDS011;1900;48.890;9.190;2023-04-25T07:41:28;7.53;;;4.53;;
3769;SDS011;1900;48.890;9.190;2023-04-25T07:43:54;4.30;;;3.90;;
3769;SDS011;1900;48.890;9.190;2023-04-25T07:46:20;9.23;;;5.63;;
3769;SDS011;1900;48.890;9.190;2023-04-25T07:48:46;4.63;;;4.17;;
3769;SDS011;1900;48.890;9.190;2023-04-25T07:51:12;5.47;;;4.40;;
3769;SDS011;1900;48.890;9.190;2023-04-25T07:53:38;6.20;;;4.43;;
3769;SDS011;1900;48.890;9.190;2023-04-25T07:56:09;7.30;;;4.93;;
3769;SDS011;1900;48.890;9.190;2023-04-25T07:58:38;6.53;;;4.47;;
3769;SDS011;1900;48.890;9.190;2023-04-25T08:01:06;8.40;;;4.80;;
3769;SDS011;1900;48.890;9.190;2023-04-25T08:03:47;5.97;;;5.10;;
3769;SDS011;1900;48.890;9.190;2023-04-25T08:06:19;8.77;;;5.03;;
3769;SDS011;1900;48.890;9.190;2023-04-25T08:08:54;5.80;;;5.20;;
3769;SDS011;1900;48.890;9.190;2023-04-25T08:11:23;7.73;;;4.83;;
3769;SDS011;1900;48.890;9.190;2023-04-25T08:13:49;7.43;;;5.90;;
3769;SDS011;1900;48.890;9.190;2023-04-25T08:16:15;7.13;;;5.40;;
3769;SDS011;1900;48.890;9.190;2023-04-25T08:18:40;6.40;;;4.90;;
3769;SDS011;1900;48.890;9.190;2023-04-25T08:21:06;8.40;;;6.10;;
3769;SDS011;1900;48.890;9.190;2023-04-25T08:23:34;7.57;;;5.20;;
3769;SDS011;1900;48.890;9.190;2023-04-25T08:26:29;8.30;;;6.20;;
3769;SDS011;1900;48.890;9.190;2023-04-25T08:28:55;7.30;;;6.23;;
3769;SDS011;1900;48.890;9.190;2023-04-25T08:31:21;7.73;;;5.73;;
3769;SDS011;1900;48.890;9.190;2023-04-25T08:33:53;10.50;;;5.53;;
3769;SDS011;1900;48.890;9.190;2023-04-25T08:36:24;6.87;;;4.70;;
3769;SDS011;1900;48.890;9.190;2023-04-25T08:38:50;7.50;;;5.53;;
3769;SDS011;1900;48.890;9.190;2023-04-25T08:41:18;9.50;;;5.60;;
3769;SDS011;1900;48.890;9.190;2023-04-25T08:43:46;5.10;;;4.60;;
3769;SDS011;1900;48.890;9.190;2023-04-25T08:46:16;5.90;;;5.30;;
3769;SDS011;1900;48.890;9.190;2023-04-25T08:48:55;6.70;;;5.77;;
3769;SDS011;1900;48.890;9.190;2023-04-25T08:51:26;6.40;;;5.00;;
3769;SDS011;1900;48.890;9.190;2023-04-25T08:53:56;8.27;;;5.67;;
3769;SDS011;1900;48.890;9.190;2023-04-25T08:56:28;7.33;;;5.30;;
3769;SDS011;1900;48.890;9.190;2023-04-25T08:58:54;11.30;;;5.53;;
3769;SDS011;1900;48.890;9.190;2023-04-25T09:01:21;7.10;;;5.33;;
3769;SDS011;1900;48.890;9.190;2023-04-25T09:03:51;7.00;;;5.50;;
3769;SDS011;1900;48.890;9.190;2023-04-25T09:06:17;9.20;;;6.00;;
3769;SDS011;1900;48.890;9.190;2023-04-25T09:08:44;8.57;;;5.80;;
3769;SDS011;1900;48.890;9.190;2023-04-25T09:11:12;9.90;;;5.90;;
3769;SDS011;1900;48.890;9.190;2023-04-25T09:13:39;8.60;;;6.37;;
3769;SDS011;1900;48.890;9.190;2023-04-25T09:16:21;12.23;;;7.07;;
3769;SDS011;1900;48.890;9.190;2023-04-25T09:19:28;10.30;;;6.40;;
3769;SDS011;1900;48.890;9.190;2023-04-25T09:22:01;7.27;;;6.50;;
3769;SDS011;1900;48.890;9.190;2023-04-25T09:27:05;11.87;;;6.40;;
3769;SDS011;1900;48.890;9.190;2023-04-25T09:29:32;7.33;;;5.70;;
3769;SDS011;1900;48.890;9.190;2023-04-25T09:34:49;8.40;;;6.93;;
3769;SDS011;1900;48.890;9.190;2023-04-25T09:37:23;10.43;;;7.80;;
3769;SDS011;1900;48.890;9.190;2023-04-25T09:40:05;8.50;;;6.40;;
3769;SDS011;1900;48.890;9.190;2023-04-25T09:42:36;8.50;;;7.20;;
3769;SDS011;1900;48.890;9.190;2023-04-25T09:45:06;13.83;;;7.00;;
3769;SDS011;1900;48.890;9.190;2023-04-25T09:47:37;9.40;;;7.03;;
3769;SDS011;1900;48.890;9.190;2023-04-25T09:50:04;9.50;;;7.30;;
3769;SDS011;1900;48.890;9.190;2023-04-25T09:53:02;8.80;;;7.10;;
3769;SDS011;1900;48.890;9.190;2023-04-25T09:55:47;11.03;;;6.80;;
3769;SDS011;1900;48.890;9.190;2023-04-25T09:58:12;9.80;;;7.40;;
3769;SDS011;1900;48.890;9.190;2023-04-25T10:00:39;10.90;;;7.87;;
3769;SDS011;1900;48.890;9.190;2023-04-25T10:03:19;13.63;;;7.43;;
3769;SDS011;1900;48.890;9.190;2023-04-25T10:06:14;8.00;;;5.63;;
3769;SDS011;1900;48.890;9.190;2023-04-25T10:08:45;7.97;;;5.90;;
3769;SDS011;1900;48.890;9.190;2023-04-25T10:11:16;8.63;;;5.90;;
3769;SDS011;1900;48.890;9.190;2023-04-25T10:13:42;8.17;;;6.07;;
3769;SDS011;1900;48.890;9.190;2023-04-25T10:16:09;14.43;;;6.57;;
3769;SDS011;1900;48.890;9.190;2023-04-25T10:18:36;14.77;;;6.17;;
3769;SDS011;1900;48.890;9.190;2023-04-25T10:21:03;8.13;;;4.80;;
3769;SDS011;1900;48.890;9.190;2023-04-25T10:23:30;5.07;;;3.97;;
3769;SDS011;1900;48.890;9.190;2023-04-25T10:25:57;7.97;;;3.97;;
3769;SDS011;1900;48.890;9.190;2023-04-25T10:28:24;5.73;;;3.77;;
3769;SDS011;1900;48.890;9.190;2023-04-25T10:33:40;5.97;;;4.77;;
3769;SDS011;1900;48.890;9.190;2023-04-25T10:36:12;6.23;;;5.40;;
3769;SDS011;1900;48.890;9.190;2023-04-25T10:38:38;9.63;;;5.57;;
3769;SDS011;1900;48.890;9.190;2023-04-25T10:41:05;7.80;;;5.87;;
3769;SDS011;1900;48.890;9.190;2023-04-25T10:51:22;7.03;;;4.60;;
3769;SDS011;1900;48.890;9.190;2023-04-25T10:53:57;7.17;;;4.47;;
3769;SDS011;1900;48.890;9.190;2023-04-25T10:59:13;6.60;;;5.70;;
3769;SDS011;1900;48.890;9.190;2023-04-25T11:01:46;6.43;;;5.03;;
3769;SDS011;1900;48.890;9.190;2023-04-25T11:04:29;8.87;;;5.70;;
3769;SDS011;1900;48.890;9.190;2023-04-25T11:09:36;6.33;;;4.90;;
3769;SDS011;1900;48.890;9.190;2023-04-25T11:12:04;6.40;;;5.33;;
3769;SDS011;1900;48.890;9.190;2023-04-25T11:14:32;6.83;;;5.10;;
3769;SDS011;1900;48.890;9.190;2023-04-25T11:16:57;7.47;;;5.20;;
3769;SDS011;1900;48.890;9.190;2023-04-25T11:19:24;7.50;;;4.10;;
3769;SDS011;1900;48.890;9.190;2023-04-25T11:21:54;5.53;;;4.20;;
3769;SDS011;1900;48.890;9.190;2023-04-25T11:24:27;4.70;;;4.00;;
3769;SDS011;1900;48.890;9.190;2023-04-25T11:26:52;5.00;;;4.33;;
3769;SDS011;1900;48.890;9.190;2023-04-25T11:29:21;6.17;;;4.50;;
3769;SDS011;1900;48.890;9.190;2023-04-25T11:31:48;6.17;;;4.43;;
3769;SDS011;1900;48.890;9.190;2023-04-25T11:34:17;6.00;;;3.70;;
3769;SDS011;1900;48.890;9.190;2023-04-25T11:36:44;5.60;;;4.03;;
3769;SDS011;1900;48.890;9.190;2023-04-25T11:39:11;5.03;;;4.00;;
3769;SDS011;1900;48.890;9.190;2023-04-25T11:41:37;6.20;;;4.40;;
3769;SDS011;1900;48.890;9.190;2023-04-25T11:44:03;9.97;;;5.17;;
3769;SDS011;1900;48.890;9.190;2023-04-25T11:46:30;13.43;;;5.53;;
3769;SDS011;1900;48.890;9.190;2023-04-25T11:48:58;5.17;;;4.17;;
3769;SDS011;1900;48.890;9.190;2023-04-25T11:51:24;7.87;;;4.80;;
3769;SDS011;1900;48.890;9.190;2023-04-25T11:53:51;5.43;;;4.07;;
3769;SDS011;1900;48.890;9.190;2023-04-25T11:56:17;7.77;;;5.40;;
3769;SDS011;1900;48.890;9.190;2023-04-25T11:59:01;5.27;;;3.90;;
3769;SDS011;1900;48.890;9.190;2023-04-25T12:01:32;7.97;;;4.10;;
3769;SDS011;1900;48.890;9.190;2023-04-25T12:04:16;5.67;;;4.80;;
3769;SDS011;1900;48.890;9.190;2023-04-25T12:06:47;6.70;;;4.43;;
3769;SDS011;1900;48.890;9.190;2023-04-25T12:09:19;5.20;;;4.40;;
3769;SDS011;1900;48.890;9.190;2023-04-25T12:11:53;6.20;;;4.23;;
3769;SDS011;1900;48.890;9.190;2023-04-25T12:14:21;6.40;;;4.60;;
3769;SDS011;1900;48.890;9.190;2023-04-25T12:16:55;6.50;;;4.80;;
3769;SDS011;1900;48.890;9.190;2023-04-25T12:19:22;8.10;;;5.40;;
3769;SDS011;1900;48.890;9.190;2023-04-25T12:21:49;10.07;;;4.73;;
3769;SDS011;1900;48.890;9.190;2023-04-25T12:24:16;5.80;;;4.33;;
3769;SDS011;1900;48.890;9.190;2023-04-25T12:26:58;6.20;;;4.90;;
3769;SDS011;1900;48.890;9.190;2023-04-25T12:29:24;7.47;;;5.80;;
3769;SDS011;1900;48.890;9.190;2023-04-25T12:31:52;6.93;;;5.90;;
3769;SDS011;1900;48.890;9.190;2023-04-25T12:34:19;13.20;;;5.90;;
3769;SDS011;1900;48.890;9.190;2023-04-25T12:36:46;11.07;;;7.53;;
3769;SDS011;1900;48.890;9.190;2023-04-25T12:39:15;8.83;;;6.33;;
3769;SDS011;1900;48.890;9.190;2023-04-25T12:41:51;8.93;;;6.20;;
3769;SDS011;1900;48.890;9.190;2023-04-25T12:44:20;9.50;;;6.13;;
3769;SDS011;1900;48.890;9.190;2023-04-25T12:46:46;8.03;;;5.80;;
3769;SDS011;1900;48.890;9.190;2023-04-25T12:49:12;8.83;;;5.80;;
3769;SDS011;1900;48.890;9.190;2023-04-25T12:51:38;9.70;;;6.60;;
3769;SDS011;1900;48.890;9.190;2023-04-25T12:54:04;8.10;;;5.47;;
3769;SDS011;1900;48.890;9.190;2023-04-25T12:56:32;13.03;;;7.30;;
3769;SDS011;1900;48.890;9.190;2023-04-25T12:58:57;8.73;;;5.50;;
3769;SDS011;1900;48.890;9.190;2023-04-25T13:01:25;8.97;;;7.03;;
3769;SDS011;1900;48.890;9.190;2023-04-25T13:03:51;9.43;;;6.47;;
3769;SDS011;1900;48.890;9.190;2023-04-25T13:06:18;10.27;;;6.83;;
3769;SDS011;1900;48.890;9.190;2023-04-25T13:08:44;9.27;;;6.07;;
3769;SDS011;1900;48.890;9.190;2023-04-25T13:11:10;12.27;;;8.47;;
3769;SDS011;1900;48.890;9.190;2023-04-25T13:13:36;13.47;;;7.83;;
3769;SDS011;1900;48.890;9.190;2023-04-25T13:16:03;12.60;;;7.87;;
3769;SDS011;1900;48.890;9.190;2023-04-25T13:18:31;13.77;;;9.37;;
3769;SDS011;1900;48.890;9.190;2023-04-25T13:20:58;11.00;;;8.30;;
3769;SDS011;1900;48.890;9.190;2023-04-25T13:23:25;15.30;;;9.93;;
3769;SDS011;1900;48.890;9.190;2023-04-25T13:25:52;13.67;;;7.70;;
3769;SDS011;1900;48.890;9.190;2023-04-25T13:28:18;9.93;;;7.57;;
3769;SDS011;1900;48.890;9.190;2023-04-25T13:30:44;8.23;;;7.30;;
3769;SDS011;1900;48.890;9.190;2023-04-25T13:33:10;10.57;;;7.63;;
3769;SDS011;1900;48.890;9.190;2023-04-25T13:35:37;14.97;;;8.90;;
3769;SDS011;1900;48.890;9.190;2023-04-25T13:38:03;13.53;;;7.93;;
3769;SDS011;1900;48.890;9.190;2023-04-25T13:40:29;11.17;;;8.60;;
3769;SDS011;1900;48.890;9.190;2023-04-25T13:42:55;17.50;;;8.23;;
3769;SDS011;1900;48.890;9.190;2023-04-25T13:45:21;10.17;;;8.50;;
3769;SDS011;1900;48.890;9.190;2023-04-25T13:47:47;10.10;;;7.80;;
3769;SDS011;1900;48.890;9.190;2023-04-25T13:50:13;11.63;;;7.13;;
3769;SDS011;1900;48.890;9.190;2023-04-25T13:52:39;16.93;;;8.30;;
3769;SDS011;1900;48.890;9.190;2023-04-25T13:55:05;9.97;;;7.17;;
3769;SDS011;1900;48.890;9.190;2023-04-25T13:57:32;10.37;;;7.50;;
3769;SDS011;1900;48.890;9.190;2023-04-25T13:59:59;11.93;;;8.03;;
3769;SDS011;1900;48.890;9.190;2023-04-25T14:02:31;11.07;;;7.10;;
3769;SDS011;1900;48.890;9.190;2023-04-25T14:04:57;10.07;;;7.20;;
3769;SDS011;1900;48.890;9.190;2023-04-25T14:07:23;10.93;;;7.57;;
3769;SDS011;1900;48.890;9.190;2023-04-25T14:09:49;12.63;;;7.40;;
3769;SDS011;1900;48.890;9.190;2023-04-25T14:12:15;8.83;;;6.80;;
3769;SDS011;1900;48.890;9.190;2023-04-25T14:14:41;9.13;;;6.97;;
3769;SDS011;1900;48.890;9.190;2023-04-25T14:17:07;9.43;;;6.57;;
3769;SDS011;1900;48.890;9.190;2023-04-25T14:19:33;7.73;;;6.17;;
3769;SDS011;1900;48.890;9.190;2023-04-25T14:21:59;11.90;;;6.77;;
3769;SDS011;1900;48.890;9.190;2023-04-25T14:24:25;7.03;;;5.77;;
3769;SDS011;1900;48.890;9.190;2023-04-25T14:26:51;12.93;;;6.40;;
3769;SDS011;1900;48.890;9.190;2023-04-25T14:29:17;9.73;;;6.87;;
3769;SDS011;1900;48.890;9.190;2023-04-25T14:31:43;6.93;;;6.20;;
3769;SDS011;1900;48.890;9.190;2023-04-25T14:34:10;13.83;;;8.27;;
3769;SDS011;1900;48.890;9.190;2023-04-25T14:36:36;15.43;;;7.90;;
3769;SDS011;1900;48.890;9.190;2023-04-25T14:39:02;10.70;;;7.23;;
3769;SDS011;1900;48.890;9.190;2023-04-25T14:41:30;10.17;;;6.63;;
3769;SDS011;1900;48.890;9.190;2023-04-25T14:43:58;10.03;;;6.57;;
3769;SDS011;1900;48.890;9.190;2023-04-25T14:46:24;12.50;;;7.40;;
3769;SDS011;1900;48.890;9.190;2023-04-25T14:48:50;9.63;;;7.10;;
3769;SDS011;1900;48.890;9.190;2023-04-25T14:51:16;14.70;;;7.60;;
3769;SDS011;1900;48.890;9.190;2023-04-25T14:53:42;15.57;;;8.60;;
3769;SDS011;1900;48.890;9.190;2023-04-25T14:56:08;17.10;;;8.77;;
3769;SDS011;1900;48.890;9.190;2023-04-25T14:58:34;11.23;;;6.60;;
3769;SDS011;1900;48.890;9.190;2023-04-25T15:01:00;8.80;;;5.20;;
3769;SDS011;1900;48.890;9.190;2023-04-25T15:03:25;10.80;;;6.13;;
3769;SDS011;1900;48.890;9.190;2023-04-25T15:05:52;7.47;;;5.77;;
3769;SDS011;1900;48.890;9.190;2023-04-25T15:08:20;7.20;;;5.07;;
3769;SDS011;1900;48.890;9.190;2023-04-25T15:10:46;8.93;;;5.20;;
3769;SDS011;1900;48.890;9.190;2023-04-25T15:13:12;9.43;;;6.10;;
3769;SDS011;1900;48.890;9.190;2023-04-25T15:15:38;8.57;;;5.57;;
3769;SDS011;1900;48.890;9.190;2023-04-25T15:18:04;8.00;;;5.90;;
3769;SDS011;1900;48.890;9.190;2023-04-25T15:20:30;7.63;;;5.13;;
3769;SDS011;1900;48.890;9.190;2023-04-25T15:22:56;8.00;;;5.70;;
3769;SDS011;1900;48.890;9.190;2023-04-25T15:25:23;10.97;;;5.50;;
3769;SDS011;1900;48.890;9.190;2023-04-25T15:27:49;9.57;;;6.50;;
3769;SDS011;1900;48.890;9.190;2023-04-25T15:30:17;10.80;;;6.50;;
3769;SDS011;1900;48.890;9.190;2023-04-25T15:32:43;11.07;;;6.10;;
3769;SDS011;1900;48.890;9.190;2023-04-25T15:35:09;10.37;;;6.80;;
3769;SDS011;1900;48.890;9.190;2023-04-25T15:37:35;19.73;;;9.23;;
3769;SDS011;1900;48.890;9.190;2023-04-25T15:42:44;8.37;;;6.10;;
3769;SDS011;1900;48.890;9.190;2023-04-25T15:45:18;9.33;;;5.87;;
3769;SDS011;1900;48.890;9.190;2023-04-25T15:47:45;13.80;;;6.47;;
3769;SDS011;1900;48.890;9.190;2023-04-25T15:50:12;12.47;;;7.10;;